sensor_id;sensor_type;location;lat;lon;timestamp;pressure;altitude;pressure_sealevel;temperature;humidity
6216;BME280;3141;49.234;9.326;2023-04-30T00:00:08;100017.78;;;16.05;64.25
6216;BME280;3141;49.234;9.326;2023-04-30T00:00:51;100011.38;;;15.99;64.42
6216;BME280;3141;49.234;9.326;2023-04-30T00:01:34;100011.09;;;16.09;64.75
6216;BME280;3141;49.234;9.326;2023-04-30T00:02:17;100016.03;;;16.12;64.51
6216;BME280;3141;49.234;9.326;2023-04-30T00:02:59;100023.84;;;16.13;64.41
6216;BME280;3141;49.234;9.326;2023-04-30T00:03:42;100015.56;;;16.08;64.73
6216;BME280;3141;49.234;9.326;2023-04-30T00:04:24;100016.31;;;16.02;65.42
6216;BME280;3141;49.234;9.326;2023-04-30T00:05:07;100014.28;;;15.90;65.84
6216;BME280;3141;49.234;9.326;2023-04-30T00:05:51;100012.34;;;15.84;65.61
6216;BME280;3141;49.234;9.326;2023-04-30T00:06:34;100009.22;;;15.80;66.05
6216;BME280;3141;49.234;9.326;2023-04-30T00:07:16;100013.72;;;15.80;65.92
6216;BME280;3141;49.234;9.326;2023-04-30T00:07:59;100013.91;;;15.78;65.89
6216;BME280;3141;49.234;9.326;2023-04-30T00:08:41;100012.69;;;15.81;65.78
6216;BME280;3141;49.234;9.326;2023-04-30T00:09:24;100014.75;;;15.93;65.47
6216;BME280;3141;49.234;9.326;2023-04-30T00:10:08;100014.09;;;15.91;65.71
6216;BME280;3141;49.234;9.326;2023-04-30T00:10:51;100010.44;;;15.92;65.98
6216;BME280;3141;49.234;9.326;2023-04-30T00:11:33;100013.09;;;15.92;65.83
6216;BME280;3141;49.234;9.326;2023-04-30T00:12:16;100015.59;;;15.94;66.19
6216;BME280;3141;49.234;9.326;2023-04-30T00:12:58;100009.69;;;15.98;66.10
6216;BME280;3141;49.234;9.326;2023-04-30T00:13:41;100015.31;;;16.03;65.80
6216;BME280;3141;49.234;9.326;2023-04-30T00:14:24;100008.69;;;15.99;65.74
6216;BME280;3141;49.234;9.326;2023-04-30T00:15:07;100013.16;;;15.84;65.83
6216;BME280;3141;49.234;9.326;2023-04-30T00:15:49;100006.56;;;15.80;65.80
6216;BME280;3141;49.234;9.326;2023-04-30T00:16:32;99999.53;;;15.79;66.31
6216;BME280;3141;49.234;9.326;2023-04-30T00:17:15;100016.38;;;15.80;65.98
6216;BME280;3141;49.234;9.326;2023-04-30T00:17:58;100011.22;;;15.78;66.09
6216;BME280;3141;49.234;9.326;2023-04-30T00:18:40;100013.16;;;15.84;65.52
6216;BME280;3141;49.234;9.326;2023-04-30T00:19:23;100008.28;;;15.88;65.60
6216;BME280;3141;49.234;9.326;2023-04-30T00:20:06;100010.44;;;15.92;65.71
6216;BME280;3141;49.234;9.326;2023-04-30T00:20:51;100012.06;;;15.93;66.16
6216;BME280;3141;49.234;9.326;2023-04-30T00:21:35;100009.41;;;15.93;66.34
6216;BME280;3141;49.234;9.326;2023-04-30T00:22:17;100014.09;;;15.91;66.10
6216;BME280;3141;49.234;9.326;2023-04-30T00:22:59;100008.03;;;15.97;65.34
6216;BME280;3141;49.234;9.326;2023-04-30T00:23:42;100013.84;;;16.01;65.21
6216;BME280;3141;49.234;9.326;2023-04-30T00:24:25;100010.63;;;16.05;65.68
6216;BME280;3141;49.234;9.326;2023-04-30T00:25:07;100015.41;;;15.95;65.25
6216;BME280;3141;49.234;9.326;2023-04-30T00:25:50;100019.00;;;16.02;65.20
6216;BME280;3141;49.234;9.326;2023-04-30T00:26:33;100015.69;;;16.00;65.71
6216;BME280;3141;49.234;9.326;2023-04-30T00:27:15;100015.69;;;16.00;65.26
6216;BME280;3141;49.234;9.326;2023-04-30T00:27:57;100011.00;;;16.02;65.16
6216;BME280;3141;49.234;9.326;2023-04-30T00:28:40;100007.63;;;15.86;66.01
6216;BME280;3141;49.234;9.326;2023-04-30T00:29:22;100016.56;;;15.93;65.67
6216;BME280;3141;49.234;9.326;2023-04-30T00:30:05;100001.41;;;15.93;65.51
6216;BME280;3141;49.234;9.326;2023-04-30T00:30:48;100007.50;;;15.87;65.20
6216;BME280;3141;49.234;9.326;2023-04-30T00:31:30;100012.16;;;15.85;65.52
6216;BME280;3141;49.234;9.326;2023-04-30T00:32:12;100015.13;;;15.90;65.17
6216;BME280;3141;49.234;9.326;2023-04-30T00:32:55;100016.22;;;15.96;65.22
6216;BME280;3141;49.234;9.326;2023-04-30T00:33:37;100016.75;;;15.91;65.67
6216;BME280;3141;49.234;9.326;2023-04-30T00:34:19;100014.09;;;15.91;65.65
6216;BME280;3141;49.234;9.326;2023-04-30T00:35:02;100014.56;;;15.95;65.38
6216;BME280;3141;49.234;9.326;2023-04-30T00:35:44;100016.56;;;15.93;64.50
6216;BME280;3141;49.234;9.326;2023-04-30T00:36:27;100014.47;;;15.88;64.84
6216;BME280;3141;49.234;9.326;2023-04-30T00:37:09;100021.09;;;15.92;65.35
6216;BME280;3141;49.234;9.326;2023-04-30T00:37:51;100015.19;;;15.82;65.76
6216;BME280;3141;49.234;9.326;2023-04-30T00:38:34;100020.81;;;15.87;65.53
6216;BME280;3141;49.234;9.326;2023-04-30T00:39:16;100019.59;;;15.90;65.30
6216;BME280;3141;49.234;9.326;2023-04-30T00:39:58;100017.41;;;15.93;64.90
6216;BME280;3141;49.234;9.326;2023-04-30T00:40:42;100018.91;;;15.96;65.08
6216;BME280;3141;49.234;9.326;2023-04-30T00:41:24;100022.56;;;15.95;65.00
6216;BME280;3141;49.234;9.326;2023-04-30T00:42:07;100021.91;;;15.93;65.07
6216;BME280;3141;49.234;9.326;2023-04-30T00:42:49;100024.75;;;15.91;65.01
6216;BME280;3141;49.234;9.326;2023-04-30T00:43:33;100021.44;;;15.89;64.96
6216;BME280;3141;49.234;9.326;2023-04-30T00:44:15;100017.13;;;15.88;64.95
6216;BME280;3141;49.234;9.326;2023-04-30T00:44:58;100023.72;;;15.78;65.64
6216;BME280;3141;49.234;9.326;2023-04-30T00:45:40;100020.88;;;15.79;65.89
6216;BME280;3141;49.234;9.326;2023-04-30T00:46:22;100023.00;;;15.84;65.68
6216;BME280;3141;49.234;9.326;2023-04-30T00:47:05;100027.78;;;15.88;65.34
6216;BME280;3141;49.234;9.326;2023-04-30T00:47:47;100030.47;;;15.88;64.97
6216;BME280;3141;49.234;9.326;2023-04-30T00:48:29;100025.50;;;15.85;65.23
6216;BME280;3141;49.234;9.326;2023-04-30T00:49:12;100035.69;;;15.82;65.41
6216;BME280;3141;49.234;9.326;2023-04-30T00:49:54;100032.94;;;15.75;64.81
6216;BME280;3141;49.234;9.326;2023-04-30T00:50:37;100037.22;;;15.76;64.92
6216;BME280;3141;49.234;9.326;2023-04-30T00:51:19;100030.97;;;15.69;64.97
6216;BME280;3141;49.234;9.326;2023-04-30T00:52:02;100033.63;;;15.69;64.46
6216;BME280;3141;49.234;9.326;2023-04-30T00:52:45;100030.53;;;15.80;64.51
6216;BME280;3141;49.234;9.326;2023-04-30T00:53:27;100030.53;;;15.80;64.40
6216;BME280;3141;49.234;9.326;2023-04-30T00:54:09;100032.47;;;15.86;64.61
6216;BME280;3141;49.234;9.326;2023-04-30T00:54:52;100034.50;;;15.84;65.16
6216;BME280;3141;49.234;9.326;2023-04-30T00:55:35;100036.81;;;15.87;65.14
6216;BME280;3141;49.234;9.326;2023-04-30T00:56:17;100036.81;;;15.87;65.43
6216;BME280;3141;49.234;9.326;2023-04-30T00:57:01;100036.69;;;15.81;65.45
6216;BME280;3141;49.234;9.326;2023-04-30T00:57:43;100032.84;;;15.83;65.29
6216;BME280;3141;49.234;9.326;2023-04-30T00:58:26;100036.13;;;15.71;65.32
6216;BME280;3141;49.234;9.326;2023-04-30T00:59:09;100043.59;;;15.75;65.20
6216;BME280;3141;49.234;9.326;2023-04-30T00:59:52;100036.66;;;15.66;66.21
6216;BME280;3141;49.234;9.326;2023-04-30T01:00:34;100036.47;;;15.68;66.69
6216;BME280;3141;49.234;9.326;2023-04-30T01:01:17;100038.97;;;15.69;66.69
6216;BME280;3141;49.234;9.326;2023-04-30T01:01:59;100035.00;;;15.65;66.81
6216;BME280;3141;49.234;9.326;2023-04-30T01:02:42;100034.88;;;15.59;67.38
6216;BME280;3141;49.234;9.326;2023-04-30T01:03:25;100032.09;;;15.52;67.67
6216;BME280;3141;49.234;9.326;2023-04-30T01:04:07;100041.75;;;15.53;67.48
6216;BME280;3141;49.234;9.326;2023-04-30T01:04:50;100041.88;;;15.60;67.16
6216;BME280;3141;49.234;9.326;2023-04-30T01:05:33;100034.00;;;15.66;67.18
6216;BME280;3141;49.234;9.326;2023-04-30T01:06:15;100034.00;;;15.66;66.94
6216;BME280;3141;49.234;9.326;2023-04-30T01:07:00;100042.41;;;15.55;67.86
6216;BME280;3141;49.234;9.326;2023-04-30T01:07:44;100037.44;;;15.52;67.58
6216;BME280;3141;49.234;9.326;2023-04-30T01:08:28;100041.28;;;15.50;67.67
6216;BME280;3141;49.234;9.326;2023-04-30T01:09:12;100038.09;;;15.54;67.11
6216;BME280;3141;49.234;9.326;2023-04-30T01:09:54;100040.88;;;15.61;66.88
6216;BME280;3141;49.234;9.326;2023-04-30T01:10:43;100046.00;;;15.62;67.46
6216;BME280;3141;49.234;9.326;2023-04-30T01:12:36;100040.69;;;15.62;67.81
6216;BME280;3141;49.234;9.326;2023-04-30T01:15:58;100037.72;;;15.57;67.18
6216;BME280;3141;49.234;9.326;2023-04-30T01:16:53;100040.69;;;15.62;67.49
6216;BME280;3141;49.234;9.326;2023-04-30T01:17:55;100042.19;;;15.65;67.68
6216;BME280;3141;49.234;9.326;2023-04-30T01:18:58;100047.72;;;15.55;67.81
6216;BME280;3141;49.234;9.326;2023-04-30T01:19:42;100043.59;;;15.53;67.84
6216;BME280;3141;49.234;9.326;2023-04-30T01:20:27;100044.09;;;15.56;68.00
6216;BME280;3141;49.234;9.326;2023-04-30T01:21:11;100046.09;;;15.54;67.35
6216;BME280;3141;49.234;9.326;2023-04-30T01:21:57;100045.44;;;15.52;67.09
6216;BME280;3141;49.234;9.326;2023-04-30T01:23:18;100042.47;;;15.47;67.52
6216;BME280;3141;49.234;9.326;2023-04-30T01:24:23;100044.47;;;15.45;67.10
6216;BME280;3141;49.234;9.326;2023-04-30T01:25:21;100043.34;;;15.40;67.76
6216;BME280;3141;49.234;9.326;2023-04-30T01:28:15;100039.53;;;15.42;66.93
6216;BME280;3141;49.234;9.326;2023-04-30T01:28:58;100037.16;;;15.47;66.83
6216;BME280;3141;49.234;9.326;2023-04-30T01:29:43;100044.66;;;15.44;67.33
6216;BME280;3141;49.234;9.326;2023-04-30T01:30:26;100038.59;;;15.50;67.31
6216;BME280;3141;49.234;9.326;2023-04-30T01:31:12;100045.06;;;15.55;66.81
6216;BME280;3141;49.234;9.326;2023-04-30T01:31:54;100040.00;;;15.46;68.56
6216;BME280;3141;49.234;9.326;2023-04-30T01:32:36;100037.97;;;15.48;67.58
6216;BME280;3141;49.234;9.326;2023-04-30T01:33:19;100038.94;;;15.55;67.23
6216;BME280;3141;49.234;9.326;2023-04-30T01:34:01;100038.75;;;15.56;67.13
6216;BME280;3141;49.234;9.326;2023-04-30T01:34:43;100039.03;;;15.61;67.12
6216;BME280;3141;49.234;9.326;2023-04-30T01:35:39;100042.03;;;15.58;67.10
6216;BME280;3141;49.234;9.326;2023-04-30T01:36:34;100039.09;;;15.53;67.86
6216;BME280;3141;49.234;9.326;2023-04-30T01:37:38;100034.84;;;15.44;67.67
6216;BME280;3141;49.234;9.326;2023-04-30T01:38:35;100043.44;;;15.54;67.51
6216;BME280;3141;49.234;9.326;2023-04-30T01:39:36;100037.44;;;15.52;67.84
6216;BME280;3141;49.234;9.326;2023-04-30T01:40:31;100039.81;;;15.47;67.85
6216;BME280;3141;49.234;9.326;2023-04-30T01:42:15;100046.84;;;15.40;68.46
6216;BME280;3141;49.234;9.326;2023-04-30T01:44:15;100033.91;;;15.29;68.58
6216;BME280;3141;49.234;9.326;2023-04-30T01:46:17;100044.84;;;15.42;68.57
6216;BME280;3141;49.234;9.326;2023-04-30T01:47:08;100044.69;;;15.36;68.59
6216;BME280;3141;49.234;9.326;2023-04-30T01:48:07;100041.03;;;15.37;68.54
6216;BME280;3141;49.234;9.326;2023-04-30T01:49:39;100041.53;;;15.40;68.01
6216;BME280;3141;49.234;9.326;2023-04-30T01:51:38;100045.50;;;15.44;68.37
6216;BME280;3141;49.234;9.326;2023-04-30T01:52:35;100049.44;;;15.48;68.25
6216;BME280;3141;49.234;9.326;2023-04-30T01:53:23;100046.59;;;15.50;68.18
6216;BME280;3141;49.234;9.326;2023-04-30T01:54:22;100040.81;;;15.46;67.99
6216;BME280;3141;49.234;9.326;2023-04-30T01:55:23;100041.53;;;15.40;68.33
6216;BME280;3141;49.234;9.326;2023-04-30T01:56:11;100034.75;;;15.30;67.78
6216;BME280;3141;49.234;9.326;2023-04-30T01:57:16;100035.69;;;15.14;68.15
6216;BME280;3141;49.234;9.326;2023-04-30T01:58:01;100037.34;;;15.15;67.95
6216;BME280;3141;49.234;9.326;2023-04-30T01:58:45;100034.69;;;15.15;68.08
6216;BME280;3141;49.234;9.326;2023-04-30T01:59:35;100028.94;;;15.26;67.63
6216;BME280;3141;49.234;9.326;2023-04-30T02:00:19;100031.97;;;15.23;67.55
6216;BME280;3141;49.234;9.326;2023-04-30T02:01:02;100029.13;;;15.25;67.84
6216;BME280;3141;49.234;9.326;2023-04-30T02:01:45;100036.75;;;15.28;67.54
6216;BME280;3141;49.234;9.326;2023-04-30T02:02:27;100034.09;;;15.28;67.54
6216;BME280;3141;49.234;9.326;2023-04-30T02:03:09;100029.41;;;15.30;67.61
6216;BME280;3141;49.234;9.326;2023-04-30T02:03:52;100030.63;;;15.27;67.44
6216;BME280;3141;49.234;9.326;2023-04-30T02:04:34;100033.72;;;15.31;67.22
6216;BME280;3141;49.234;9.326;2023-04-30T02:05:17;100028.88;;;15.42;67.14
6216;BME280;3141;49.234;9.326;2023-04-30T02:05:59;100032.00;;;15.38;66.38
6216;BME280;3141;49.234;9.326;2023-04-30T02:06:41;100037.03;;;15.41;66.32
6216;BME280;3141;49.234;9.326;2023-04-30T02:07:40;100028.88;;;15.42;67.06
6216;BME280;3141;49.234;9.326;2023-04-30T02:08:22;100030.38;;;15.37;66.52
6216;BME280;3141;49.234;9.326;2023-04-30T02:09:05;100031.91;;;15.31;65.78
6216;BME280;3141;49.234;9.326;2023-04-30T02:09:48;100026.94;;;15.28;64.89
6216;BME280;3141;49.234;9.326;2023-04-30T02:10:30;100030.25;;;15.30;64.96
6216;BME280;3141;49.234;9.326;2023-04-30T02:11:12;100031.53;;;15.34;64.58
6216;BME280;3141;49.234;9.326;2023-04-30T02:11:55;100023.16;;;15.45;64.75
6216;BME280;3141;49.234;9.326;2023-04-30T02:12:39;100027.31;;;15.48;64.63
6216;BME280;3141;49.234;9.326;2023-04-30T02:13:22;100027.25;;;15.56;64.43
6216;BME280;3141;49.234;9.326;2023-04-30T02:14:04;100030.38;;;15.59;64.23
6216;BME280;3141;49.234;9.326;2023-04-30T02:14:47;100026.59;;;15.54;64.57
6216;BME280;3141;49.234;9.326;2023-04-30T02:15:29;100025.28;;;15.50;64.37
6216;BME280;3141;49.234;9.326;2023-04-30T02:16:11;100024.66;;;15.48;64.20
6216;BME280;3141;49.234;9.326;2023-04-30T02:16:54;100023.09;;;15.53;64.25
6216;BME280;3141;49.234;9.326;2023-04-30T02:17:36;100030.47;;;15.51;64.47
6216;BME280;3141;49.234;9.326;2023-04-30T02:18:18;100024.41;;;15.57;64.18
6216;BME280;3141;49.234;9.326;2023-04-30T02:19:01;100027.44;;;15.54;63.88
6216;BME280;3141;49.234;9.326;2023-04-30T02:19:43;100026.88;;;15.59;64.56
6216;BME280;3141;49.234;9.326;2023-04-30T02:20:26;100027.66;;;15.45;64.54
6216;BME280;3141;49.234;9.326;2023-04-30T02:21:08;100024.81;;;15.46;64.72
6216;BME280;3141;49.234;9.326;2023-04-30T02:21:50;100029.53;;;15.36;64.96
6216;BME280;3141;49.234;9.326;2023-04-30T02:22:33;100027.03;;;15.35;65.24
6216;BME280;3141;49.234;9.326;2023-04-30T02:23:15;100026.19;;;15.42;64.64
6216;BME280;3141;49.234;9.326;2023-04-30T02:23:57;100026.50;;;15.47;64.31
6216;BME280;3141;49.234;9.326;2023-04-30T02:24:39;100026.00;;;15.44;64.01
6216;BME280;3141;49.234;9.326;2023-04-30T02:25:22;100030.38;;;15.37;64.64
6216;BME280;3141;49.234;9.326;2023-04-30T02:26:04;100027.31;;;15.48;64.48
6216;BME280;3141;49.234;9.326;2023-04-30T02:26:46;100025.75;;;15.53;64.46
6216;BME280;3141;49.234;9.326;2023-04-30T02:27:30;100026.69;;;15.60;64.35
6216;BME280;3141;49.234;9.326;2023-04-30T02:28:12;100026.78;;;15.52;65.18
6216;BME280;3141;49.234;9.326;2023-04-30T02:28:55;100022.75;;;15.56;64.45
6216;BME280;3141;49.234;9.326;2023-04-30T02:29:37;100024.59;;;15.56;64.32
6216;BME280;3141;49.234;9.326;2023-04-30T02:30:19;100023.38;;;15.58;64.23
6216;BME280;3141;49.234;9.326;2023-04-30T02:31:02;100024.47;;;15.49;64.59
6216;BME280;3141;49.234;9.326;2023-04-30T02:31:44;100022.47;;;15.51;64.93
6216;BME280;3141;49.234;9.326;2023-04-30T02:32:27;100022.09;;;15.54;64.77
6216;BME280;3141;49.234;9.326;2023-04-30T02:33:09;100023.09;;;15.53;64.94
6216;BME280;3141;49.234;9.326;2023-04-30T02:33:53;100026.69;;;15.60;64.76
6216;BME280;3141;49.234;9.326;2023-04-30T02:34:36;100027.44;;;15.54;64.52
6216;BME280;3141;49.234;9.326;2023-04-30T02:35:18;100027.06;;;15.57;64.81
6216;BME280;3141;49.234;9.326;2023-04-30T02:36:00;100026.41;;;15.55;64.96
6216;BME280;3141;49.234;9.326;2023-04-30T02:36:42;100021.63;;;15.51;65.28
6216;BME280;3141;49.234;9.326;2023-04-30T02:37:25;100033.47;;;15.48;65.42
6216;BME280;3141;49.234;9.326;2023-04-30T02:38:07;100029.69;;;15.43;65.73
6216;BME280;3141;49.234;9.326;2023-04-30T02:38:50;100032.50;;;15.41;66.08
6216;BME280;3141;49.234;9.326;2023-04-30T02:39:32;100029.88;;;15.33;66.15
6216;BME280;3141;49.234;9.326;2023-04-30T02:40:14;100026.56;;;15.31;65.83
6216;BME280;3141;49.234;9.326;2023-04-30T02:40:56;100032.56;;;15.33;66.10
6216;BME280;3141;49.234;9.326;2023-04-30T02:41:39;100029.19;;;15.39;66.17
6216;BME280;3141;49.234;9.326;2023-04-30T02:42:21;100034.03;;;15.36;66.50
6216;BME280;3141;49.234;9.326;2023-04-30T02:43:03;100033.16;;;15.43;66.43
6216;BME280;3141;49.234;9.326;2023-04-30T02:43:47;100041.34;;;15.42;66.45
6216;BME280;3141;49.234;9.326;2023-04-30T02:44:29;100036.84;;;15.42;65.79
6216;BME280;3141;49.234;9.326;2023-04-30T02:45:12;100034.19;;;15.34;65.91
6216;BME280;3141;49.234;9.326;2023-04-30T02:45:54;100029.72;;;15.35;66.19
6216;BME280;3141;49.234;9.326;2023-04-30T02:46:36;100027.19;;;15.41;66.29
6216;BME280;3141;49.234;9.326;2023-04-30T02:47:19;100032.66;;;15.48;66.07
6216;BME280;3141;49.234;9.326;2023-04-30T02:48:01;100038.19;;;15.38;66.47
6216;BME280;3141;49.234;9.326;2023-04-30T02:48:43;100027.88;;;15.35;66.62
6216;BME280;3141;49.234;9.326;2023-04-30T02:49:26;100031.91;;;15.31;66.30
6216;BME280;3141;49.234;9.326;2023-04-30T02:50:08;100029.06;;;15.33;66.41
6216;BME280;3141;49.234;9.326;2023-04-30T02:50:51;100033.69;;;15.39;66.82
6216;BME280;3141;49.234;9.326;2023-04-30T02:51:33;100033.69;;;15.39;66.52
6216;BME280;3141;49.234;9.326;2023-04-30T02:52:15;100035.88;;;15.35;66.80
6216;BME280;3141;49.234;9.326;2023-04-30T02:52:58;100025.44;;;15.26;66.59
6216;BME280;3141;49.234;9.326;2023-04-30T02:53:40;100030.13;;;15.24;66.69
6216;BME280;3141;49.234;9.326;2023-04-30T02:54:23;100026.63;;;15.23;66.70
6216;BME280;3141;49.234;9.326;2023-04-30T02:55:06;100024.66;;;15.17;67.10
6216;BME280;3141;49.234;9.326;2023-04-30T02:55:48;100026.38;;;15.10;67.11
6216;BME280;3141;49.234;9.326;2023-04-30T02:56:30;100032.06;;;15.07;67.49
6216;BME280;3141;49.234;9.326;2023-04-30T02:57:13;100023.78;;;15.02;67.57
6216;BME280;3141;49.234;9.326;2023-04-30T02:57:55;100026.44;;;15.02;67.59
6216;BME280;3141;49.234;9.326;2023-04-30T02:58:37;100025.75;;;15.08;67.28
6216;BME280;3141;49.234;9.326;2023-04-30T02:59:20;100025.88;;;15.06;67.13
6216;BME280;3141;49.234;9.326;2023-04-30T03:00:02;100025.75;;;15.08;67.42
6216;BME280;3141;49.234;9.326;2023-04-30T03:00:45;100027.88;;;15.13;67.20
6216;BME280;3141;49.234;9.326;2023-04-30T03:01:28;100030.34;;;15.14;67.08
6216;BME280;3141;49.234;9.326;2023-04-30T03:02:10;100024.72;;;15.09;67.46
6216;BME280;3141;49.234;9.326;2023-04-30T03:02:53;100019.69;;;15.14;67.37
6216;BME280;3141;49.234;9.326;2023-04-30T03:03:36;100027.50;;;15.16;67.36
6216;BME280;3141;49.234;9.326;2023-04-30T03:04:18;100031.66;;;15.18;67.20
6216;BME280;3141;49.234;9.326;2023-04-30T03:05:01;100026.84;;;15.14;67.43
6216;BME280;3141;49.234;9.326;2023-04-30T03:05:43;100027.03;;;15.12;67.42
6216;BME280;3141;49.234;9.326;2023-04-30T03:06:25;100025.38;;;15.11;67.51
6216;BME280;3141;49.234;9.326;2023-04-30T03:07:08;100032.47;;;15.19;67.23
6216;BME280;3141;49.234;9.326;2023-04-30T03:07:50;100032.03;;;15.15;67.54
6216;BME280;3141;49.234;9.326;2023-04-30T03:08:32;100034.84;;;15.14;67.52
6216;BME280;3141;49.234;9.326;2023-04-30T03:09:15;100032.34;;;15.12;67.62
6216;BME280;3141;49.234;9.326;2023-04-30T03:09:57;100029.88;;;15.11;67.84
6216;BME280;3141;49.234;9.326;2023-04-30T03:10:39;100028.41;;;15.08;67.33
6216;BME280;3141;49.234;9.326;2023-04-30T03:11:22;100027.88;;;15.13;67.18
6216;BME280;3141;49.234;9.326;2023-04-30T03:12:04;100023.84;;;15.17;66.83
6216;BME280;3141;49.234;9.326;2023-04-30T03:12:46;100025.50;;;15.18;66.67
6216;BME280;3141;49.234;9.326;2023-04-30T03:13:29;100023.84;;;15.17;66.61
6216;BME280;3141;49.234;9.326;2023-04-30T03:14:11;100023.03;;;15.16;66.66
6216;BME280;3141;49.234;9.326;2023-04-30T03:14:53;100026.47;;;15.25;66.33
6216;BME280;3141;49.234;9.326;2023-04-30T03:15:36;100022.94;;;15.24;66.56
6216;BME280;3141;49.234;9.326;2023-04-30T03:16:19;100027.28;;;15.25;66.63
6216;BME280;3141;49.234;9.326;2023-04-30T03:17:02;100021.59;;;15.28;66.41
6216;BME280;3141;49.234;9.326;2023-04-30T03:17:44;100026.63;;;15.23;66.31
6216;BME280;3141;49.234;9.326;2023-04-30T03:18:27;100028.47;;;15.23;66.27
6216;BME280;3141;49.234;9.326;2023-04-30T03:19:10;100026.34;;;15.18;66.34
6216;BME280;3141;49.234;9.326;2023-04-30T03:19:52;100022.94;;;15.24;66.47
6216;BME280;3141;49.234;9.326;2023-04-30T03:20:35;100022.94;;;15.24;66.16
6216;BME280;3141;49.234;9.326;2023-04-30T03:21:17;100020.78;;;15.28;65.70
6216;BME280;3141;49.234;9.326;2023-04-30T03:22:00;100019.13;;;15.27;65.83
6216;BME280;3141;49.234;9.326;2023-04-30T03:22:42;100021.31;;;15.23;65.69
6216;BME280;3141;49.234;9.326;2023-04-30T03:23:27;100022.63;;;15.27;65.65
6216;BME280;3141;49.234;9.326;2023-04-30T03:24:10;100025.28;;;15.27;65.79
6216;BME280;3141;49.234;9.326;2023-04-30T03:24:52;100024.09;;;15.30;65.98
6216;BME280;3141;49.234;9.326;2023-04-30T03:25:34;100022.91;;;15.32;65.78
6216;BME280;3141;49.234;9.326;2023-04-30T03:26:18;100027.03;;;15.35;65.75
6216;BME280;3141;49.234;9.326;2023-04-30T03:27:01;100026.22;;;15.34;65.86
6216;BME280;3141;49.234;9.326;2023-04-30T03:27:44;100032.38;;;15.35;65.98
6216;BME280;3141;49.234;9.326;2023-04-30T03:28:26;100036.84;;;15.34;66.05
6216;BME280;3141;49.234;9.326;2023-04-30T03:29:09;100031.06;;;15.31;66.01
6216;BME280;3141;49.234;9.326;2023-04-30T03:29:51;100031.91;;;15.31;66.11
6216;BME280;3141;49.234;9.326;2023-04-30T03:30:34;100032.06;;;15.30;66.34
6216;BME280;3141;49.234;9.326;2023-04-30T03:31:16;100036.28;;;15.24;66.57
6216;BME280;3141;49.234;9.326;2023-04-30T03:31:58;100032.94;;;15.22;66.61
6216;BME280;3141;49.234;9.326;2023-04-30T03:32:41;100036.28;;;15.24;66.57
6216;BME280;3141;49.234;9.326;2023-04-30T03:33:23;100034.63;;;15.23;66.75
6216;BME280;3141;49.234;9.326;2023-04-30T03:34:06;100036.44;;;15.23;66.77
6216;BME280;3141;49.234;9.326;2023-04-30T03:34:49;100036.44;;;15.23;66.63
6216;BME280;3141;49.234;9.326;2023-04-30T03:35:32;100024.34;;;15.20;67.04
6216;BME280;3141;49.234;9.326;2023-04-30T03:36:14;100033.50;;;15.18;66.84
6216;BME280;3141;49.234;9.326;2023-04-30T03:36:57;100034.22;;;15.12;67.17
6216;BME280;3141;49.234;9.326;2023-04-30T03:37:39;100029.69;;;15.12;67.03
6216;BME280;3141;49.234;9.326;2023-04-30T03:38:21;100022.19;;;15.16;66.75
6216;BME280;3141;49.234;9.326;2023-04-30T03:39:04;100029.66;;;15.20;66.94
6216;BME280;3141;49.234;9.326;2023-04-30T03:39:46;100023.03;;;15.16;67.07
6216;BME280;3141;49.234;9.326;2023-04-30T03:40:28;100027.31;;;15.17;66.86
6216;BME280;3141;49.234;9.326;2023-04-30T03:41:11;100026.38;;;15.10;67.05
6216;BME280;3141;49.234;9.326;2023-04-30T03:41:53;100029.41;;;15.07;67.24
6216;BME280;3141;49.234;9.326;2023-04-30T03:42:35;100032.06;;;15.07;67.63
6216;BME280;3141;49.234;9.326;2023-04-30T03:43:17;100032.34;;;15.12;67.26
6216;BME280;3141;49.234;9.326;2023-04-30T03:44:00;100029.19;;;15.17;67.06
6216;BME280;3141;49.234;9.326;2023-04-30T03:44:42;100026.56;;;15.08;66.68
6216;BME280;3141;49.234;9.326;2023-04-30T03:45:24;100031.38;;;15.13;66.77
6216;BME280;3141;49.234;9.326;2023-04-30T03:46:07;100034.72;;;15.07;67.22
6216;BME280;3141;49.234;9.326;2023-04-30T03:46:49;100032.59;;;15.02;67.44
6216;BME280;3141;49.234;9.326;2023-04-30T03:47:32;100037.50;;;15.14;67.14
6216;BME280;3141;49.234;9.326;2023-04-30T03:48:14;100037.81;;;15.19;66.98
6216;BME280;3141;49.234;9.326;2023-04-30T03:48:57;100033.78;;;15.23;66.80
6216;BME280;3141;49.234;9.326;2023-04-30T03:49:39;100034.03;;;15.13;67.82
6216;BME280;3141;49.234;9.326;2023-04-30T03:50:21;100037.69;;;15.12;67.91
6216;BME280;3141;49.234;9.326;2023-04-30T03:51:04;100032.72;;;15.09;67.66
6216;BME280;3141;49.234;9.326;2023-04-30T03:51:46;100034.84;;;15.14;67.45
6216;BME280;3141;49.234;9.326;2023-04-30T03:52:29;100030.34;;;15.14;67.29
6216;BME280;3141;49.234;9.326;2023-04-30T03:53:12;100029.03;;;15.10;67.86
6216;BME280;3141;49.234;9.326;2023-04-30T03:53:54;100034.84;;;15.14;67.73
6216;BME280;3141;49.234;9.326;2023-04-30T03:54:36;100032.06;;;15.07;67.85
6216;BME280;3141;49.234;9.326;2023-04-30T03:55:19;100025.94;;;14.98;68.44
6216;BME280;3141;49.234;9.326;2023-04-30T03:56:02;100027.47;;;14.93;68.20
6216;BME280;3141;49.234;9.326;2023-04-30T03:56:44;100029.81;;;14.96;68.15
6216;BME280;3141;49.234;9.326;2023-04-30T03:57:27;100028.44;;;15.00;68.15
6216;BME280;3141;49.234;9.326;2023-04-30T03:58:09;100026.44;;;15.02;68.04
6216;BME280;3141;49.234;9.326;2023-04-30T03:58:52;100029.75;;;15.04;67.89
6216;BME280;3141;49.234;9.326;2023-04-30T03:59:34;100018.38;;;15.10;67.50
6216;BME280;3141;49.234;9.326;2023-04-30T04:00:16;100026.72;;;15.07;67.72
6216;BME280;3141;49.234;9.326;2023-04-30T04:00:59;100016.38;;;15.12;67.52
6216;BME280;3141;49.234;9.326;2023-04-30T04:01:41;100019.47;;;15.01;68.07
6216;BME280;3141;49.234;9.326;2023-04-30T04:02:24;100012.81;;;14.97;68.65
6216;BME280;3141;49.234;9.326;2023-04-30T04:03:06;100025.09;;;15.06;68.42
6216;BME280;3141;49.234;9.326;2023-04-30T04:03:49;100019.03;;;15.12;68.11
6216;BME280;3141;49.234;9.326;2023-04-30T04:04:32;100031.00;;;15.16;68.08
6216;BME280;3141;49.234;9.326;2023-04-30T04:05:14;100021.69;;;15.12;68.26
6216;BME280;3141;49.234;9.326;2023-04-30T04:05:57;100020.06;;;15.11;67.90